createdAt,value
2018-09-24T00:00:15.228Z,10.02
2018-09-24T00:02:44.250Z,10.07
2018-09-24T00:05:13.096Z,10.00
2018-09-24T00:07:42.437Z,10.03
2018-09-24T00:10:11.218Z,10.12
2018-09-24T00:12:40.153Z,10.05
2018-09-24T00:15:09.111Z,10.05
2018-09-24T00:17:37.804Z,10.10
2018-09-24T00:20:06.678Z,10.07
2018-09-24T00:22:35.462Z,10.03
2018-09-24T00:25:04.604Z,9.99
2018-09-24T00:27:34.165Z,9.98
2018-09-24T00:30:03.668Z,9.99
2018-09-24T00:32:32.465Z,9.96
2018-09-24T00:35:02.080Z,9.95
2018-09-24T00:37:30.776Z,9.94
2018-09-24T00:39:59.440Z,9.96
2018-09-24T00:42:28.099Z,9.89
2018-09-24T00:44:56.821Z,9.88
2018-09-24T00:47:25.648Z,9.85
2018-09-24T00:49:54.386Z,9.78
2018-09-24T00:52:23.602Z,9.81
2018-09-24T00:54:52.427Z,9.86
2018-09-24T00:57:21.135Z,9.88
2018-09-24T00:59:50.107Z,9.89
2018-09-24T01:02:18.827Z,9.96
2018-09-24T01:04:47.598Z,9.93
2018-09-24T01:07:16.305Z,9.88
2018-09-24T01:09:44.986Z,9.83
2018-09-24T01:12:13.814Z,9.78
2018-09-24T01:14:42.524Z,9.79
2018-09-24T01:17:11.236Z,9.84
2018-09-24T01:19:39.855Z,9.80
2018-09-24T01:22:08.607Z,9.77
2018-09-24T01:24:37.355Z,9.78
2018-09-24T01:27:06.190Z,9.71
2018-09-24T01:29:34.987Z,9.76
2018-09-24T01:32:04.278Z,9.76
2018-09-24T01:34:33.492Z,9.74
2018-09-24T01:37:02.920Z,9.72
2018-09-24T01:39:32.145Z,9.67
2018-09-24T01:42:01.809Z,9.70
2018-09-24T01:44:30.744Z,9.69
2018-09-24T01:46:59.530Z,9.61
2018-09-24T01:49:28.394Z,9.60
2018-09-24T01:51:57.256Z,9.58
2018-09-24T01:54:29.738Z,9.55
2018-09-24T01:56:58.625Z,9.56
2018-09-24T01:59:27.411Z,9.60
2018-09-24T02:01:56.134Z,9.60
2018-09-24T02:04:25.181Z,9.63
2018-09-24T02:07:02.931Z,9.59
2018-09-24T02:09:32.250Z,9.66
2018-09-24T02:12:06.336Z,9.73
2018-09-24T02:14:35.556Z,9.76
2018-09-24T02:17:04.444Z,9.79
2018-09-24T02:19:33.672Z,9.71
2018-09-24T02:22:03.527Z,9.66
2018-09-24T02:24:32.294Z,9.64
2018-09-24T02:27:01.766Z,9.68
2018-09-24T02:29:30.783Z,9.65
2018-09-24T02:31:59.781Z,9.61
2018-09-24T02:34:28.715Z,9.64
2018-09-24T02:36:57.631Z,9.69
2018-09-24T02:39:26.364Z,9.62
2018-09-24T02:41:56.084Z,9.68
2018-09-24T02:44:26.733Z,9.62
2018-09-24T02:46:55.673Z,9.58
2018-09-24T02:49:24.728Z,9.59
2018-09-24T02:51:53.697Z,9.60
2018-09-24T02:54:22.504Z,9.65
2018-09-24T02:56:52.145Z,9.58
2018-09-24T02:59:20.979Z,9.59
2018-09-24T03:01:50.249Z,9.60
2018-09-24T03:04:19.119Z,9.58
2018-09-24T03:06:48.019Z,9.63
2018-09-24T03:09:17.992Z,9.64
2018-09-24T03:11:47.309Z,9.66
2018-09-24T03:14:23.578Z,9.65
2018-09-24T03:16:53.179Z,9.69
2018-09-24T03:19:22.007Z,9.62
2018-09-24T03:21:51.021Z,9.52
2018-09-24T03:24:19.755Z,9.46
2018-09-24T03:26:48.736Z,9.49
2018-09-24T03:29:20.485Z,9.48
2018-09-24T03:31:49.046Z,9.53
2018-09-24T03:34:18.489Z,9.51
2018-09-24T03:36:48.746Z,9.47
2018-09-24T03:39:17.876Z,9.43
2018-09-24T03:41:46.737Z,9.46
2018-09-24T03:44:16.379Z,9.36
2018-09-24T03:46:45.119Z,9.36
2018-09-24T03:49:13.961Z,9.42
2018-09-24T03:51:42.671Z,9.52
2018-09-24T03:54:12.008Z,9.46
2018-09-24T03:56:40.829Z,9.49
2018-09-24T03:59:10.049Z,9.35
2018-09-24T04:01:38.855Z,9.38
2018-09-24T04:04:12.764Z,9.33
2018-09-24T04:06:46.667Z,9.30
2018-09-24T04:09:20.755Z,9.27
2018-09-24T04:11:54.761Z,9.23
2018-09-24T04:14:28.728Z,9.29
2018-09-24T04:17:02.705Z,9.30
2018-09-24T04:19:36.619Z,9.33
2018-09-24T04:22:10.496Z,9.33
2018-09-24T04:24:44.542Z,9.35
2018-09-24T04:27:19.332Z,9.37
2018-09-24T04:29:53.446Z,9.30
2018-09-24T04:32:27.271Z,9.28
2018-09-24T04:35:02.351Z,9.25
2018-09-24T04:37:36.364Z,9.28
2018-09-24T04:40:10.271Z,9.18
2018-09-24T04:42:44.522Z,9.19
2018-09-24T04:45:18.629Z,9.22
2018-09-24T04:47:52.636Z,9.26
2018-09-24T04:50:26.667Z,9.18
2018-09-24T04:53:00.775Z,9.17
2018-09-24T04:55:34.813Z,9.16
2018-09-24T04:58:08.802Z,9.11
2018-09-24T05:00:42.812Z,9.08
2018-09-24T05:03:16.818Z,9.13
2018-09-24T05:05:50.837Z,9.15
2018-09-24T05:08:24.736Z,9.14
2018-09-24T05:10:58.667Z,9.17
2018-09-24T05:13:32.556Z,9.17
2018-09-24T05:16:08.749Z,9.06
2018-09-24T05:18:42.995Z,9.11
2018-09-24T05:21:17.041Z,9.07
2018-09-24T05:23:51.034Z,9.06
2018-09-24T05:26:24.876Z,9.06
2018-09-24T05:29:00.149Z,9.07
2018-09-24T05:31:34.307Z,9.09
2018-09-24T05:34:08.727Z,9.20
2018-09-24T05:36:42.638Z,9.16
2018-09-24T05:39:16.565Z,9.10
2018-09-24T05:41:50.555Z,9.00
2018-09-24T05:44:24.564Z,8.99
2018-09-24T05:46:58.719Z,8.91
2018-09-24T05:49:32.839Z,8.89
2018-09-24T05:52:06.663Z,8.95
2018-09-24T05:54:41.236Z,9.03
2018-09-24T05:57:15.321Z,9.04
2018-09-24T05:59:49.545Z,9.05
2018-09-24T06:02:23.755Z,9.03
2018-09-24T06:04:58.075Z,9.04
2018-09-24T06:07:31.950Z,9.14
2018-09-24T06:10:06.097Z,9.14
2018-09-24T06:12:40.224Z,9.18
2018-09-24T06:15:14.125Z,9.20
2018-09-24T06:17:48.388Z,9.18
2018-09-24T06:20:25.108Z,9.16
2018-09-24T06:22:59.121Z,9.19
2018-09-24T06:25:33.567Z,9.32
2018-09-24T06:28:07.957Z,9.41
2018-09-24T06:30:41.886Z,9.52
2018-09-24T06:33:15.873Z,9.56
2018-09-24T06:35:49.616Z,9.49
2018-09-24T06:38:23.487Z,9.48
2018-09-24T06:41:03.895Z,9.44
2018-09-24T06:43:37.787Z,9.38
2018-09-24T06:46:11.940Z,9.37
2018-09-24T06:48:45.934Z,9.37
2018-09-24T06:51:19.916Z,9.38
2018-09-24T06:53:53.898Z,9.38
2018-09-24T06:56:27.899Z,9.42
2018-09-24T06:59:01.932Z,9.46
2018-09-24T07:01:36.646Z,9.49
2018-09-24T07:04:10.564Z,9.48
2018-09-24T07:06:44.403Z,9.55
2018-09-24T07:09:18.377Z,9.57
2018-09-24T07:11:52.422Z,9.62
2018-09-24T07:14:26.345Z,9.64
2018-09-24T07:17:00.122Z,9.65
2018-09-24T07:19:34.287Z,9.65
2018-09-24T07:22:10.024Z,9.72
2018-09-24T07:24:43.942Z,9.79
2018-09-24T07:27:17.768Z,9.83
2018-09-24T07:29:51.860Z,9.97
2018-09-24T07:32:25.672Z,10.05
2018-09-24T07:34:59.736Z,10.15
2018-09-24T07:37:33.613Z,10.16
2018-09-24T07:40:08.553Z,10.18
2018-09-24T07:42:43.176Z,10.19
2018-09-24T07:45:17.197Z,10.25
2018-09-24T07:47:51.056Z,10.33
2018-09-24T07:50:24.962Z,10.43
2018-09-24T07:52:58.937Z,10.51
2018-09-24T07:55:32.951Z,10.57
2018-09-24T07:58:06.843Z,10.62
2018-09-24T08:00:40.893Z,10.69
2018-09-24T08:03:14.761Z,10.73
2018-09-24T08:05:48.782Z,10.78
2018-09-24T08:08:22.659Z,10.86
2018-09-24T08:10:56.546Z,10.87
2018-09-24T08:13:30.589Z,10.96
2018-09-24T08:16:04.426Z,11.07
2018-09-24T08:18:38.376Z,11.12
2018-09-24T08:21:12.400Z,11.09
2018-09-24T08:23:46.292Z,11.06
2018-09-24T08:26:19.927Z,11.11
2018-09-24T08:28:53.882Z,11.17
2018-09-24T08:31:27.805Z,11.27
2018-09-24T08:34:01.824Z,11.34
2018-09-24T08:36:35.750Z,11.43
2018-09-24T08:39:11.539Z,11.55
2018-09-24T08:41:45.464Z,11.64
2018-09-24T08:44:19.452Z,11.77
2018-09-24T08:46:54.647Z,11.81
2018-09-24T08:49:28.790Z,11.85
2018-09-24T08:52:02.720Z,11.89
2018-09-24T08:54:36.805Z,11.97
2018-09-24T08:57:11.407Z,11.97
2018-09-24T08:59:45.703Z,11.98
2018-09-24T09:02:19.921Z,12.02
2018-09-24T09:04:54.002Z,12.01
2018-09-24T09:07:28.861Z,12.04
2018-09-24T09:10:03.168Z,12.12
2018-09-24T09:12:37.248Z,12.19
2018-09-24T09:15:11.141Z,12.32
2018-09-24T09:17:45.169Z,12.41
2018-09-24T09:20:19.306Z,12.45
2018-09-24T09:22:53.526Z,12.51
2018-09-24T09:25:28.403Z,12.54
2018-09-24T09:28:02.754Z,12.47
2018-09-24T09:30:37.352Z,12.42
2018-09-24T09:33:12.299Z,12.30
2018-09-24T09:35:46.613Z,12.28
2018-09-24T09:38:21.158Z,12.26
2018-09-24T09:40:55.173Z,12.24
2018-09-24T09:43:29.221Z,12.31
2018-09-24T09:46:03.691Z,12.46
2018-09-24T09:48:37.667Z,12.55
2018-09-24T09:51:12.455Z,12.58
2018-09-24T09:53:46.537Z,12.60
2018-09-24T09:56:20.747Z,12.64
2018-09-24T09:58:54.917Z,12.84
2018-09-24T10:01:28.896Z,12.99
2018-09-24T10:04:02.974Z,12.92
2018-09-24T10:06:36.842Z,12.74
2018-09-24T10:09:13.116Z,12.45
2018-09-24T10:11:47.089Z,12.20
2018-09-24T10:14:21.156Z,12.03
2018-09-24T10:16:55.372Z,11.90
2018-09-24T10:19:29.554Z,11.89
2018-09-24T10:22:03.382Z,12.01
2018-09-24T10:24:37.266Z,12.04
2018-09-24T10:27:11.236Z,12.24
2018-09-24T10:29:45.049Z,12.43
2018-09-24T10:32:19.056Z,12.61
2018-09-24T10:34:53.434Z,12.81
2018-09-24T10:37:27.186Z,12.96
2018-09-24T10:40:02.057Z,13.19
2018-09-24T10:42:35.837Z,13.37
2018-09-24T10:45:09.712Z,13.32
2018-09-24T10:47:43.508Z,13.19
2018-09-24T10:50:17.242Z,12.77
2018-09-24T10:52:51.104Z,12.40
2018-09-24T10:55:25.072Z,12.33
2018-09-24T10:57:58.857Z,12.57
2018-09-24T11:00:32.939Z,12.77
2018-09-24T11:03:06.928Z,13.00
2018-09-24T11:05:40.923Z,12.97
2018-09-24T11:08:14.763Z,13.03
2018-09-24T11:10:48.774Z,13.15
2018-09-24T11:13:22.550Z,13.41
2018-09-24T11:15:57.323Z,13.55
2018-09-24T11:18:31.154Z,13.71
2018-09-24T11:21:05.212Z,13.79
2018-09-24T11:23:39.619Z,13.75
2018-09-24T11:28:47.457Z,13.12
2018-09-24T11:31:21.295Z,12.77
2018-09-24T11:33:55.306Z,12.79
2018-09-24T11:36:29.034Z,12.83
2018-09-24T11:39:02.944Z,12.86
2018-09-24T11:41:37.145Z,13.05
2018-09-24T11:44:11.184Z,13.25
2018-09-24T11:46:45.098Z,13.48
2018-09-24T11:49:19.218Z,13.74
2018-09-24T11:51:55.052Z,13.86
2018-09-24T11:54:29.962Z,13.79
2018-09-24T11:57:03.783Z,13.83
2018-09-24T11:59:38.643Z,13.89
2018-09-24T12:02:12.847Z,13.90
2018-09-24T12:04:46.813Z,13.87
2018-09-24T12:07:21.509Z,13.95
2018-09-24T12:09:55.479Z,13.96
2018-09-24T12:12:29.875Z,13.82
2018-09-24T12:15:03.985Z,13.63
2018-09-24T12:17:38.095Z,13.48
2018-09-24T12:20:12.226Z,13.29
2018-09-24T12:22:45.964Z,13.15
2018-09-24T12:25:21.247Z,12.67
2018-09-24T12:27:55.296Z,12.09
2018-09-24T12:30:29.768Z,11.65
2018-09-24T12:33:03.699Z,11.15
2018-09-24T12:35:37.517Z,10.60
2018-09-24T12:38:11.325Z,10.32
2018-09-24T12:40:45.119Z,10.34
2018-09-24T12:43:19.787Z,10.42
2018-09-24T12:45:53.752Z,10.33
2018-09-24T12:48:27.756Z,10.39
2018-09-24T12:51:01.952Z,10.54
2018-09-24T12:53:36.126Z,10.79
2018-09-24T12:56:10.175Z,11.26
2018-09-24T12:58:44.077Z,11.61
2018-09-24T13:01:18.356Z,11.99
2018-09-24T13:03:52.244Z,12.33
2018-09-24T13:06:26.297Z,12.43
2018-09-24T13:09:00.599Z,12.43
2018-09-24T13:11:34.611Z,12.66
2018-09-24T13:14:09.474Z,12.89
2018-09-24T13:16:43.539Z,12.91
2018-09-24T13:19:17.905Z,12.82
2018-09-24T13:21:51.926Z,12.67
2018-09-24T13:24:25.830Z,12.58
2018-09-24T13:27:00.167Z,12.44
2018-09-24T13:29:34.181Z,12.31
2018-09-24T13:32:08.839Z,12.05
2018-09-24T13:34:42.767Z,11.92
2018-09-24T13:37:16.942Z,11.83
2018-09-24T13:39:50.841Z,11.70
2018-09-24T13:42:24.801Z,11.65
2018-09-24T13:44:58.733Z,11.58
2018-09-24T13:47:32.597Z,11.47
2018-09-24T13:50:06.624Z,11.40
2018-09-24T13:52:40.525Z,11.45
2018-09-24T13:55:14.523Z,11.47
2018-09-24T13:57:48.366Z,11.59
2018-09-24T14:00:22.214Z,11.70
2018-09-24T14:02:56.126Z,11.74
2018-09-24T14:05:29.928Z,11.75
2018-09-24T14:08:10.123Z,11.73
2018-09-24T14:10:44.020Z,11.58
2018-09-24T14:13:17.926Z,11.31
2018-09-24T14:15:51.809Z,10.98
2018-09-24T14:18:25.881Z,10.89
2018-09-24T14:20:59.839Z,10.97
2018-09-24T14:23:33.457Z,11.30
2018-09-24T14:26:08.270Z,11.66
2018-09-24T14:28:42.166Z,11.97
2018-09-24T14:31:15.987Z,12.22
2018-09-24T14:33:49.854Z,12.29
2018-09-24T14:36:23.667Z,12.25
2018-09-24T14:38:57.672Z,12.30
2018-09-24T14:41:31.613Z,12.23
2018-09-24T14:44:05.520Z,12.26
2018-09-24T14:46:39.510Z,12.47
2018-09-24T14:49:13.490Z,12.67
2018-09-24T14:51:51.598Z,12.54
2018-09-24T14:54:25.881Z,12.45
2018-09-24T14:56:59.655Z,12.40
2018-09-24T14:59:33.486Z,12.31
2018-09-24T15:02:07.076Z,12.15
2018-09-24T15:04:41.089Z,12.05
2018-09-24T15:07:15.057Z,12.03
2018-09-24T15:09:48.995Z,11.97
2018-09-24T15:12:23.018Z,11.83
2018-09-24T15:14:57.003Z,11.83
2018-09-24T15:17:30.886Z,12.12
2018-09-24T15:20:04.741Z,12.35
2018-09-24T15:22:38.730Z,12.41
2018-09-24T15:25:12.573Z,12.25
2018-09-24T15:27:46.575Z,12.20
2018-09-24T15:30:20.499Z,12.13
2018-09-24T15:32:54.478Z,11.98
2018-09-24T15:35:28.451Z,11.96
2018-09-24T15:38:02.311Z,11.98
2018-09-24T15:40:36.256Z,11.95
2018-09-24T15:43:10.615Z,11.93
2018-09-24T15:45:44.514Z,11.95
2018-09-24T15:48:18.461Z,11.99
2018-09-24T15:50:53.025Z,12.01
2018-09-24T15:53:27.609Z,12.08
2018-09-24T15:56:02.614Z,12.10
2018-09-24T15:58:36.570Z,12.08
2018-09-24T16:01:10.368Z,11.92
2018-09-24T16:03:44.198Z,11.89
2018-09-24T16:06:18.082Z,11.80
2018-09-24T16:08:51.983Z,11.70
2018-09-24T16:11:25.628Z,11.71
2018-09-24T16:13:59.713Z,11.57
2018-09-24T16:16:33.542Z,11.47
2018-09-24T16:19:08.670Z,11.40
2018-09-24T16:21:42.641Z,11.39
2018-09-24T16:24:17.147Z,11.33
2018-09-24T16:26:51.181Z,11.33
2018-09-24T16:29:27.132Z,11.28
2018-09-24T16:32:01.047Z,11.31
2018-09-24T16:34:35.465Z,11.28
2018-09-24T16:37:10.258Z,11.28
2018-09-24T16:39:44.609Z,11.30
2018-09-24T16:42:18.592Z,11.28
2018-09-24T16:44:53.550Z,11.25
2018-09-24T16:47:27.656Z,11.22
2018-09-24T16:50:01.831Z,11.23
2018-09-24T16:52:36.143Z,11.35
2018-09-24T16:55:13.375Z,11.40
2018-09-24T16:57:47.328Z,11.47
2018-09-24T17:00:21.653Z,11.47
2018-09-24T17:02:56.204Z,11.47
2018-09-24T17:05:30.268Z,11.50
2018-09-24T17:08:05.731Z,11.52
2018-09-24T17:10:39.855Z,11.44
2018-09-24T17:13:13.984Z,11.33
2018-09-24T17:15:48.049Z,11.05
2018-09-24T17:18:23.008Z,10.87
2018-09-24T17:20:57.035Z,10.86
2018-09-24T17:23:32.098Z,10.76
2018-09-24T17:26:06.059Z,10.73
2018-09-24T17:28:42.176Z,10.76
2018-09-24T17:31:16.246Z,10.70
2018-09-24T17:33:54.532Z,10.74
2018-09-24T17:36:28.899Z,10.72
2018-09-24T17:39:02.984Z,10.71
2018-09-24T17:41:36.859Z,10.72
2018-09-24T17:44:10.862Z,10.71
2018-09-24T17:46:44.879Z,10.78
2018-09-24T17:49:19.158Z,10.78
2018-09-24T17:51:53.102Z,10.84
2018-09-24T17:54:27.373Z,10.88
2018-09-24T17:57:01.719Z,10.88
2018-09-24T17:59:35.513Z,10.81
2018-09-24T18:02:10.306Z,10.78
2018-09-24T18:04:44.468Z,10.73
2018-09-24T18:07:18.412Z,10.70
2018-09-24T18:09:52.677Z,10.64
2018-09-24T18:12:26.611Z,10.62
2018-09-24T18:15:00.627Z,10.64
2018-09-24T18:17:35.010Z,10.66
2018-09-24T18:20:10.761Z,10.64
2018-09-24T18:22:45.858Z,10.61
2018-09-24T18:25:20.468Z,10.62
2018-09-24T18:27:54.678Z,10.60
2018-09-24T18:30:29.674Z,10.59
2018-09-24T18:33:04.698Z,10.59
2018-09-24T18:35:38.699Z,10.61
2018-09-24T18:38:13.511Z,10.63
2018-09-24T18:40:47.551Z,10.65
2018-09-24T18:43:28.200Z,10.64
2018-09-24T18:46:02.405Z,10.65
2018-09-24T18:48:36.788Z,10.58
2018-09-24T18:51:10.959Z,10.53
2018-09-24T18:53:46.575Z,10.56
2018-09-24T18:56:21.039Z,10.57
2018-09-24T18:58:55.096Z,10.53
2018-09-24T19:01:29.147Z,10.48
2018-09-24T19:04:03.181Z,10.38
2018-09-24T19:06:37.327Z,10.29
2018-09-24T19:09:13.394Z,10.24
2018-09-24T19:11:47.497Z,10.27
2018-09-24T19:14:21.369Z,10.25
2018-09-24T19:16:55.109Z,10.26
2018-09-24T19:19:30.057Z,10.28
2018-09-24T19:22:05.254Z,10.23
2018-09-24T19:24:39.159Z,10.21
2018-09-24T19:27:13.635Z,10.13
2018-09-24T19:29:47.578Z,10.12
2018-09-24T19:32:21.614Z,10.08
2018-09-24T19:34:55.574Z,10.07
2018-09-24T19:37:29.882Z,10.09
2018-09-24T19:40:04.074Z,10.11
2018-09-24T19:42:38.062Z,10.08
2018-09-24T19:45:12.847Z,10.12
2018-09-24T19:47:46.905Z,10.06
2018-09-24T19:50:21.347Z,10.12
2018-09-24T19:52:55.435Z,10.05
2018-09-24T19:55:29.472Z,9.96
2018-09-24T19:58:03.492Z,9.89
2018-09-24T20:00:37.461Z,9.86
2018-09-24T20:03:11.971Z,9.89
2018-09-24T20:05:46.013Z,9.93
2018-09-24T20:08:19.876Z,9.93
2018-09-24T20:10:53.872Z,9.93
2018-09-24T20:13:28.798Z,9.89
2018-09-24T20:16:02.765Z,9.88
2018-09-24T20:18:36.677Z,9.85
2018-09-24T20:21:10.532Z,9.84
2018-09-24T20:23:44.850Z,9.94
2018-09-24T20:26:18.808Z,9.95
2018-09-24T20:28:53.105Z,9.91
2018-09-24T20:31:27.279Z,9.85
2018-09-24T20:34:01.795Z,9.75
2018-09-24T20:36:35.772Z,9.79
2018-09-24T20:39:12.678Z,9.74
2018-09-24T20:41:47.243Z,9.64
2018-09-24T20:44:22.144Z,9.74
2018-09-24T20:46:56.623Z,9.77
2018-09-24T20:49:30.800Z,9.74
2018-09-24T20:52:04.924Z,9.74
2018-09-24T20:54:39.424Z,9.81
2018-09-24T20:57:13.824Z,9.79
2018-09-24T20:59:47.907Z,9.77
2018-09-24T21:02:21.902Z,9.64
2018-09-24T21:04:56.097Z,9.61
2018-09-24T21:07:29.953Z,9.57
2018-09-24T21:10:03.869Z,9.58
2018-09-24T21:12:37.814Z,9.62
2018-09-24T21:15:12.219Z,9.59
2018-09-24T21:17:46.633Z,9.58
2018-09-24T21:20:20.562Z,9.52
2018-09-24T21:22:54.482Z,9.52
2018-09-24T21:25:28.314Z,9.52
2018-09-24T21:28:03.017Z,9.52
2018-09-24T21:30:36.925Z,9.43
2018-09-24T21:33:10.954Z,9.42
2018-09-24T21:35:45.766Z,9.42
2018-09-24T21:38:19.706Z,9.37
2018-09-24T21:40:53.694Z,9.39
2018-09-24T21:43:27.559Z,9.38
2018-09-24T21:46:02.016Z,9.35
2018-09-24T21:48:36.121Z,9.40
2018-09-24T21:51:10.576Z,9.39
2018-09-24T21:53:44.616Z,9.30
2018-09-24T21:56:18.423Z,9.31
2018-09-24T21:58:52.834Z,9.32
2018-09-24T22:01:26.867Z,9.37
2018-09-24T22:04:00.818Z,9.31
2018-09-24T22:06:34.781Z,9.34
2018-09-24T22:09:08.791Z,9.26
2018-09-24T22:11:42.667Z,9.22
2018-09-24T22:14:16.646Z,9.09
2018-09-24T22:16:51.030Z,9.04
2018-09-24T22:19:24.937Z,8.98
2018-09-24T22:21:59.096Z,8.94
2018-09-24T22:24:33.323Z,8.99
2018-09-24T22:27:07.388Z,8.99
2018-09-24T22:29:41.252Z,8.94
2018-09-24T22:32:15.229Z,9.02
